sensor_id;sensor_type;location;lat;lon;timestamp;P1;durP1;ratioP1;P2;durP2;ratioP2
69260;SDS011;56378;52.404;20.816;2023-02-11T00:01:19;42.45;;;14.73;;
69260;SDS011;56378;52.404;20.816;2023-02-11T00:03:45;41.72;;;14.82;;
69260;SDS011;56378;52.404;20.816;2023-02-11T00:06:11;39.67;;;14.93;;
69260;SDS011;56378;52.404;20.816;2023-02-11T00:08:37;41.78;;;13.77;;
69260;SDS011;56378;52.404;20.816;2023-02-11T00:11:03;38.47;;;13.77;;
69260;SDS011;56378;52.404;20.816;2023-02-11T00:13:30;42.17;;;14.65;;
69260;SDS011;56378;52.404;20.816;2023-02-11T00:15:56;40.67;;;13.95;;
69260;SDS011;56378;52.404;20.816;2023-02-11T00:18:21;39.73;;;13.20;;
69260;SDS011;56378;52.404;20.816;2023-02-11T00:20:47;37.45;;;13.20;;
69260;SDS011;56378;52.404;20.816;2023-02-11T00:23:13;34.83;;;13.27;;
69260;SDS011;56378;52.404;20.816;2023-02-11T00:25:39;42.42;;;14.10;;
69260;SDS011;56378;52.404;20.816;2023-02-11T00:28:06;37.88;;;13.07;;
69260;SDS011;56378;52.404;20.816;2023-02-11T00:30:33;35.15;;;12.40;;
69260;SDS011;56378;52.404;20.816;2023-02-11T00:32:59;32.42;;;11.88;;
69260;SDS011;56378;52.404;20.816;2023-02-11T00:35:25;39.10;;;12.95;;
69260;SDS011;56378;52.404;20.816;2023-02-11T00:37:54;37.47;;;12.30;;
69260;SDS011;56378;52.404;20.816;2023-02-11T00:40:20;33.15;;;13.02;;
69260;SDS011;56378;52.404;20.816;2023-02-11T00:42:46;34.35;;;12.57;;
69260;SDS011;56378;52.404;20.816;2023-02-11T00:45:12;33.67;;;12.77;;
69260;SDS011;56378;52.404;20.816;2023-02-11T00:47:37;30.85;;;11.13;;
69260;SDS011;56378;52.404;20.816;2023-02-11T00:50:03;32.33;;;10.80;;
69260;SDS011;56378;52.404;20.816;2023-02-11T00:52:30;37.25;;;11.38;;
69260;SDS011;56378;52.404;20.816;2023-02-11T00:54:56;37.17;;;11.02;;
69260;SDS011;56378;52.404;20.816;2023-02-11T00:57:22;24.42;;;10.60;;
69260;SDS011;56378;52.404;20.816;2023-02-11T00:59:48;27.08;;;10.30;;
69260;SDS011;56378;52.404;20.816;2023-02-11T01:02:14;30.37;;;9.93;;
69260;SDS011;56378;52.404;20.816;2023-02-11T01:04:40;23.58;;;8.35;;
69260;SDS011;56378;52.404;20.816;2023-02-11T01:07:06;30.08;;;9.13;;
69260;SDS011;56378;52.404;20.816;2023-02-11T01:09:32;30.50;;;10.33;;
69260;SDS011;56378;52.404;20.816;2023-02-11T01:11:58;29.58;;;10.20;;
69260;SDS011;56378;52.404;20.816;2023-02-11T01:14:24;25.50;;;8.90;;
69260;SDS011;56378;52.404;20.816;2023-02-11T01:16:50;33.05;;;9.88;;
69260;SDS011;56378;52.404;20.816;2023-02-11T01:19:15;22.57;;;8.47;;
69260;SDS011;56378;52.404;20.816;2023-02-11T01:21:41;27.52;;;9.10;;
69260;SDS011;56378;52.404;20.816;2023-02-11T01:24:07;29.97;;;9.90;;
69260;SDS011;56378;52.404;20.816;2023-02-11T01:26:32;24.48;;;9.05;;
69260;SDS011;56378;52.404;20.816;2023-02-11T01:28:58;29.73;;;8.93;;
69260;SDS011;56378;52.404;20.816;2023-02-11T01:31:25;25.63;;;8.10;;
69260;SDS011;56378;52.404;20.816;2023-02-11T01:33:51;30.13;;;9.10;;
69260;SDS011;56378;52.404;20.816;2023-02-11T01:36:17;33.08;;;10.05;;
69260;SDS011;56378;52.404;20.816;2023-02-11T01:38:42;25.40;;;10.00;;
69260;SDS011;56378;52.404;20.816;2023-02-11T01:41:10;32.75;;;10.55;;
69260;SDS011;56378;52.404;20.816;2023-02-11T01:43:42;29.42;;;10.13;;
69260;SDS011;56378;52.404;20.816;2023-02-11T01:49:02;28.20;;;8.80;;
69260;SDS011;56378;52.404;20.816;2023-02-11T01:51:36;24.13;;;9.18;;
69260;SDS011;56378;52.404;20.816;2023-02-11T01:54:06;27.35;;;9.68;;
69260;SDS011;56378;52.404;20.816;2023-02-11T01:57:03;25.25;;;8.95;;
69260;SDS011;56378;52.404;20.816;2023-02-11T02:03:11;34.70;;;10.37;;
69260;SDS011;56378;52.404;20.816;2023-02-11T02:10:42;25.92;;;9.82;;
69260;SDS011;56378;52.404;20.816;2023-02-11T02:13:10;27.25;;;9.30;;
69260;SDS011;56378;52.404;20.816;2023-02-11T02:15:37;27.20;;;9.40;;
69260;SDS011;56378;52.404;20.816;2023-02-11T02:20:51;27.10;;;9.82;;
69260;SDS011;56378;52.404;20.816;2023-02-11T02:34:14;22.65;;;8.68;;
69260;SDS011;56378;52.404;20.816;2023-02-11T02:37:00;31.25;;;9.50;;
69260;SDS011;56378;52.404;20.816;2023-02-11T02:39:32;29.55;;;9.98;;
69260;SDS011;56378;52.404;20.816;2023-02-11T02:42:01;29.63;;;8.93;;
69260;SDS011;56378;52.404;20.816;2023-02-11T02:44:28;27.55;;;9.48;;
69260;SDS011;56378;52.404;20.816;2023-02-11T02:46:54;28.88;;;9.68;;
69260;SDS011;56378;52.404;20.816;2023-02-11T02:49:20;26.08;;;9.30;;
69260;SDS011;56378;52.404;20.816;2023-02-11T02:57:18;34.35;;;9.88;;
69260;SDS011;56378;52.404;20.816;2023-02-11T03:00:13;25.10;;;10.10;;
69260;SDS011;56378;52.404;20.816;2023-02-11T03:02:49;27.17;;;9.30;;
69260;SDS011;56378;52.404;20.816;2023-02-11T03:08:33;25.63;;;9.43;;
69260;SDS011;56378;52.404;20.816;2023-02-11T03:11:02;25.50;;;9.63;;
69260;SDS011;56378;52.404;20.816;2023-02-11T03:13:33;27.63;;;9.10;;
69260;SDS011;56378;52.404;20.816;2023-02-11T03:16:07;26.02;;;9.23;;
69260;SDS011;56378;52.404;20.816;2023-02-11T03:18:38;25.20;;;8.30;;
69260;SDS011;56378;52.404;20.816;2023-02-11T03:21:08;26.65;;;8.82;;
69260;SDS011;56378;52.404;20.816;2023-02-11T03:23:43;29.08;;;9.00;;
69260;SDS011;56378;52.404;20.816;2023-02-11T03:26:22;23.83;;;8.70;;
69260;SDS011;56378;52.404;20.816;2023-02-11T03:29:34;27.02;;;8.43;;
69260;SDS011;56378;52.404;20.816;2023-02-11T03:32:06;24.67;;;8.40;;
69260;SDS011;56378;52.404;20.816;2023-02-11T03:37:14;23.88;;;8.50;;
69260;SDS011;56378;52.404;20.816;2023-02-11T03:39:49;21.55;;;7.72;;
69260;SDS011;56378;52.404;20.816;2023-02-11T03:42:21;23.17;;;8.27;;
69260;SDS011;56378;52.404;20.816;2023-02-11T03:44:55;25.63;;;9.17;;
69260;SDS011;56378;52.404;20.816;2023-02-11T03:47:28;24.85;;;8.43;;
69260;SDS011;56378;52.404;20.816;2023-02-11T03:49:55;27.98;;;9.68;;
69260;SDS011;56378;52.404;20.816;2023-02-11T03:52:23;21.25;;;7.57;;
69260;SDS011;56378;52.404;20.816;2023-02-11T03:54:52;27.42;;;10.07;;
69260;SDS011;56378;52.404;20.816;2023-02-11T03:57:20;25.77;;;8.87;;
69260;SDS011;56378;52.404;20.816;2023-02-11T03:59:50;26.67;;;9.43;;
69260;SDS011;56378;52.404;20.816;2023-02-11T04:02:21;29.67;;;9.18;;
69260;SDS011;56378;52.404;20.816;2023-02-11T04:04:49;27.60;;;9.57;;
69260;SDS011;56378;52.404;20.816;2023-02-11T04:07:15;24.60;;;10.10;;
69260;SDS011;56378;52.404;20.816;2023-02-11T04:09:40;24.50;;;9.67;;
69260;SDS011;56378;52.404;20.816;2023-02-11T04:12:06;26.02;;;9.13;;
69260;SDS011;56378;52.404;20.816;2023-02-11T04:14:32;27.63;;;10.05;;
69260;SDS011;56378;52.404;20.816;2023-02-11T04:16:58;29.27;;;10.83;;
69260;SDS011;56378;52.404;20.816;2023-02-11T04:19:23;28.13;;;10.23;;
69260;SDS011;56378;52.404;20.816;2023-02-11T04:21:49;28.47;;;10.43;;
69260;SDS011;56378;52.404;20.816;2023-02-11T04:24:15;36.03;;;12.65;;
69260;SDS011;56378;52.404;20.816;2023-02-11T04:26:40;31.63;;;11.60;;
69260;SDS011;56378;52.404;20.816;2023-02-11T04:29:06;32.03;;;11.55;;
69260;SDS011;56378;52.404;20.816;2023-02-11T04:31:32;32.00;;;11.73;;
69260;SDS011;56378;52.404;20.816;2023-02-11T04:33:58;27.83;;;11.47;;
69260;SDS011;56378;52.404;20.816;2023-02-11T04:36:23;36.03;;;12.48;;
69260;SDS011;56378;52.404;20.816;2023-02-11T04:38:49;30.02;;;10.75;;
69260;SDS011;56378;52.404;20.816;2023-02-11T04:41:15;32.72;;;11.15;;
69260;SDS011;56378;52.404;20.816;2023-02-11T04:43:40;29.03;;;11.50;;
69260;SDS011;56378;52.404;20.816;2023-02-11T04:46:06;31.45;;;11.70;;
69260;SDS011;56378;52.404;20.816;2023-02-11T04:48:32;28.37;;;11.23;;
69260;SDS011;56378;52.404;20.816;2023-02-11T04:50:59;32.50;;;11.75;;
69260;SDS011;56378;52.404;20.816;2023-02-11T04:53:24;28.67;;;10.55;;
69260;SDS011;56378;52.404;20.816;2023-02-11T04:55:50;29.90;;;12.03;;
69260;SDS011;56378;52.404;20.816;2023-02-11T04:58:16;29.00;;;12.00;;
69260;SDS011;56378;52.404;20.816;2023-02-11T05:00:43;34.47;;;13.13;;
69260;SDS011;56378;52.404;20.816;2023-02-11T05:03:09;34.75;;;12.48;;
69260;SDS011;56378;52.404;20.816;2023-02-11T05:05:39;31.17;;;11.75;;
69260;SDS011;56378;52.404;20.816;2023-02-11T05:08:06;31.08;;;12.43;;
69260;SDS011;56378;52.404;20.816;2023-02-11T05:10:32;33.17;;;12.52;;
69260;SDS011;56378;52.404;20.816;2023-02-11T05:12:58;32.30;;;12.77;;
69260;SDS011;56378;52.404;20.816;2023-02-11T05:15:24;30.83;;;11.98;;
69260;SDS011;56378;52.404;20.816;2023-02-11T05:17:50;33.13;;;12.75;;
69260;SDS011;56378;52.404;20.816;2023-02-11T05:20:16;34.43;;;12.40;;
69260;SDS011;56378;52.404;20.816;2023-02-11T05:22:42;30.65;;;11.73;;
69260;SDS011;56378;52.404;20.816;2023-02-11T05:25:08;35.70;;;13.93;;
69260;SDS011;56378;52.404;20.816;2023-02-11T05:27:34;34.63;;;12.32;;
69260;SDS011;56378;52.404;20.816;2023-02-11T05:29:59;29.88;;;12.48;;
69260;SDS011;56378;52.404;20.816;2023-02-11T05:32:25;33.53;;;12.07;;
69260;SDS011;56378;52.404;20.816;2023-02-11T05:34:51;32.27;;;12.87;;
69260;SDS011;56378;52.404;20.816;2023-02-11T05:37:16;34.35;;;12.13;;
69260;SDS011;56378;52.404;20.816;2023-02-11T05:39:42;34.07;;;12.57;;
69260;SDS011;56378;52.404;20.816;2023-02-11T05:42:08;32.33;;;13.00;;
69260;SDS011;56378;52.404;20.816;2023-02-11T05:44:34;32.03;;;12.05;;
69260;SDS011;56378;52.404;20.816;2023-02-11T05:46:59;38.25;;;12.90;;
69260;SDS011;56378;52.404;20.816;2023-02-11T05:49:25;31.57;;;12.37;;
69260;SDS011;56378;52.404;20.816;2023-02-11T05:51:51;33.50;;;13.90;;
69260;SDS011;56378;52.404;20.816;2023-02-11T05:54:16;37.20;;;12.43;;
69260;SDS011;56378;52.404;20.816;2023-02-11T05:56:42;35.65;;;14.15;;
69260;SDS011;56378;52.404;20.816;2023-02-11T05:59:08;34.37;;;13.73;;
69260;SDS011;56378;52.404;20.816;2023-02-11T06:01:36;36.53;;;14.63;;
69260;SDS011;56378;52.404;20.816;2023-02-11T06:04:01;34.15;;;13.77;;
69260;SDS011;56378;52.404;20.816;2023-02-11T06:06:27;27.75;;;12.40;;
69260;SDS011;56378;52.404;20.816;2023-02-11T06:08:53;37.50;;;12.77;;
69260;SDS011;56378;52.404;20.816;2023-02-11T06:11:19;35.58;;;13.65;;
69260;SDS011;56378;52.404;20.816;2023-02-11T06:13:44;35.50;;;14.55;;
69260;SDS011;56378;52.404;20.816;2023-02-11T06:16:10;33.97;;;13.53;;
69260;SDS011;56378;52.404;20.816;2023-02-11T06:18:36;38.88;;;14.43;;
69260;SDS011;56378;52.404;20.816;2023-02-11T06:21:05;36.35;;;14.77;;
69260;SDS011;56378;52.404;20.816;2023-02-11T06:23:35;37.88;;;14.73;;
69260;SDS011;56378;52.404;20.816;2023-02-11T06:26:02;38.35;;;14.88;;
69260;SDS011;56378;52.404;20.816;2023-02-11T06:28:29;32.93;;;12.50;;
69260;SDS011;56378;52.404;20.816;2023-02-11T06:30:58;39.22;;;13.88;;
69260;SDS011;56378;52.404;20.816;2023-02-11T06:33:30;35.60;;;14.50;;
69260;SDS011;56378;52.404;20.816;2023-02-11T06:35:56;38.22;;;14.30;;
69260;SDS011;56378;52.404;20.816;2023-02-11T06:38:21;36.33;;;15.13;;
69260;SDS011;56378;52.404;20.816;2023-02-11T06:40:47;38.67;;;15.70;;
69260;SDS011;56378;52.404;20.816;2023-02-11T06:43:13;43.90;;;15.77;;
69260;SDS011;56378;52.404;20.816;2023-02-11T06:45:40;36.67;;;15.15;;
69260;SDS011;56378;52.404;20.816;2023-02-11T06:48:06;36.08;;;13.73;;
69260;SDS011;56378;52.404;20.816;2023-02-11T06:50:32;33.87;;;13.93;;
69260;SDS011;56378;52.404;20.816;2023-02-11T06:52:58;40.88;;;15.10;;
69260;SDS011;56378;52.404;20.816;2023-02-11T06:55:24;43.17;;;15.57;;
69260;SDS011;56378;52.404;20.816;2023-02-11T06:57:50;40.58;;;15.50;;
69260;SDS011;56378;52.404;20.816;2023-02-11T07:00:15;39.15;;;16.45;;
69260;SDS011;56378;52.404;20.816;2023-02-11T07:02:42;42.30;;;16.50;;
69260;SDS011;56378;52.404;20.816;2023-02-11T07:05:08;38.83;;;15.57;;
69260;SDS011;56378;52.404;20.816;2023-02-11T07:07:34;36.50;;;13.60;;
69260;SDS011;56378;52.404;20.816;2023-02-11T07:10:00;41.20;;;16.80;;
69260;SDS011;56378;52.404;20.816;2023-02-11T07:12:28;42.65;;;17.17;;
69260;SDS011;56378;52.404;20.816;2023-02-11T07:14:54;39.30;;;15.40;;
69260;SDS011;56378;52.404;20.816;2023-02-11T07:17:21;39.95;;;16.05;;
69260;SDS011;56378;52.404;20.816;2023-02-11T07:19:46;44.58;;;17.52;;
69260;SDS011;56378;52.404;20.816;2023-02-11T07:22:12;44.23;;;18.17;;
69260;SDS011;56378;52.404;20.816;2023-02-11T07:24:38;47.42;;;18.65;;
69260;SDS011;56378;52.404;20.816;2023-02-11T07:27:04;47.77;;;17.67;;
69260;SDS011;56378;52.404;20.816;2023-02-11T07:29:29;44.72;;;17.27;;
69260;SDS011;56378;52.404;20.816;2023-02-11T07:31:55;44.30;;;17.77;;
69260;SDS011;56378;52.404;20.816;2023-02-11T07:34:21;39.92;;;15.60;;
69260;SDS011;56378;52.404;20.816;2023-02-11T07:36:46;38.83;;;16.60;;
69260;SDS011;56378;52.404;20.816;2023-02-11T07:39:13;45.85;;;18.23;;
69260;SDS011;56378;52.404;20.816;2023-02-11T07:41:39;44.83;;;17.37;;
69260;SDS011;56378;52.404;20.816;2023-02-11T07:44:05;45.72;;;17.85;;
69260;SDS011;56378;52.404;20.816;2023-02-11T07:46:30;42.70;;;17.20;;
69260;SDS011;56378;52.404;20.816;2023-02-11T07:48:56;46.97;;;18.95;;
69260;SDS011;56378;52.404;20.816;2023-02-11T07:51:26;46.63;;;17.93;;
69260;SDS011;56378;52.404;20.816;2023-02-11T07:53:53;48.08;;;18.17;;
69260;SDS011;56378;52.404;20.816;2023-02-11T07:56:20;45.65;;;17.23;;
69260;SDS011;56378;52.404;20.816;2023-02-11T07:58:46;44.43;;;17.50;;
69260;SDS011;56378;52.404;20.816;2023-02-11T08:01:16;41.03;;;17.13;;
69260;SDS011;56378;52.404;20.816;2023-02-11T08:03:44;49.60;;;18.52;;
69260;SDS011;56378;52.404;20.816;2023-02-11T08:06:13;44.58;;;16.63;;
69260;SDS011;56378;52.404;20.816;2023-02-11T08:08:41;43.05;;;17.73;;
69260;SDS011;56378;52.404;20.816;2023-02-11T08:11:26;50.45;;;18.35;;
69260;SDS011;56378;52.404;20.816;2023-02-11T08:13:53;46.15;;;17.10;;
69260;SDS011;56378;52.404;20.816;2023-02-11T08:16:22;43.15;;;17.05;;
69260;SDS011;56378;52.404;20.816;2023-02-11T08:18:50;46.45;;;17.58;;
69260;SDS011;56378;52.404;20.816;2023-02-11T08:21:18;43.28;;;16.92;;
69260;SDS011;56378;52.404;20.816;2023-02-11T08:23:44;47.13;;;17.88;;
69260;SDS011;56378;52.404;20.816;2023-02-11T08:26:32;45.13;;;18.27;;
69260;SDS011;56378;52.404;20.816;2023-02-11T08:28:58;48.90;;;18.58;;
69260;SDS011;56378;52.404;20.816;2023-02-11T08:31:27;49.08;;;17.52;;
69260;SDS011;56378;52.404;20.816;2023-02-11T08:33:54;49.08;;;19.13;;
69260;SDS011;56378;52.404;20.816;2023-02-11T08:36:23;47.00;;;18.02;;
69260;SDS011;56378;52.404;20.816;2023-02-11T08:38:52;50.10;;;18.45;;
69260;SDS011;56378;52.404;20.816;2023-02-11T08:41:23;50.40;;;19.20;;
69260;SDS011;56378;52.404;20.816;2023-02-11T08:43:49;47.42;;;18.92;;
69260;SDS011;56378;52.404;20.816;2023-02-11T08:46:16;48.23;;;18.40;;
69260;SDS011;56378;52.404;20.816;2023-02-11T08:48:43;43.63;;;17.25;;
69260;SDS011;56378;52.404;20.816;2023-02-11T08:51:12;48.15;;;17.58;;
69260;SDS011;56378;52.404;20.816;2023-02-11T08:53:48;42.75;;;17.90;;
69260;SDS011;56378;52.404;20.816;2023-02-11T08:56:16;49.17;;;19.43;;
69260;SDS011;56378;52.404;20.816;2023-02-11T08:58:43;53.60;;;19.48;;
69260;SDS011;56378;52.404;20.816;2023-02-11T09:01:13;46.88;;;17.85;;
69260;SDS011;56378;52.404;20.816;2023-02-11T09:03:44;49.15;;;20.05;;
69260;SDS011;56378;52.404;20.816;2023-02-11T09:06:11;48.90;;;18.25;;
69260;SDS011;56378;52.404;20.816;2023-02-11T09:08:39;49.53;;;18.40;;
69260;SDS011;56378;52.404;20.816;2023-02-11T09:11:06;46.70;;;18.70;;
69260;SDS011;56378;52.404;20.816;2023-02-11T09:13:32;51.58;;;20.70;;
69260;SDS011;56378;52.404;20.816;2023-02-11T09:15:59;49.35;;;19.05;;
69260;SDS011;56378;52.404;20.816;2023-02-11T09:18:25;49.05;;;18.90;;
69260;SDS011;56378;52.404;20.816;2023-02-11T09:20:52;38.63;;;15.02;;
69260;SDS011;56378;52.404;20.816;2023-02-11T09:23:25;49.60;;;19.65;;
69260;SDS011;56378;52.404;20.816;2023-02-11T09:25:51;49.40;;;18.65;;
69260;SDS011;56378;52.404;20.816;2023-02-11T09:28:16;43.67;;;16.57;;
69260;SDS011;56378;52.404;20.816;2023-02-11T09:30:42;53.27;;;19.77;;
69260;SDS011;56378;52.404;20.816;2023-02-11T09:33:08;48.45;;;17.67;;
69260;SDS011;56378;52.404;20.816;2023-02-11T09:35:34;54.00;;;20.07;;
69260;SDS011;56378;52.404;20.816;2023-02-11T09:37:59;49.85;;;18.92;;
69260;SDS011;56378;52.404;20.816;2023-02-11T09:40:25;57.00;;;21.08;;
69260;SDS011;56378;52.404;20.816;2023-02-11T09:45:33;58.53;;;21.17;;
69260;SDS011;56378;52.404;20.816;2023-02-11T09:48:00;48.88;;;17.17;;
69260;SDS011;56378;52.404;20.816;2023-02-11T09:50:41;60.83;;;21.88;;
69260;SDS011;56378;52.404;20.816;2023-02-11T09:53:15;59.53;;;20.02;;
69260;SDS011;56378;52.404;20.816;2023-02-11T09:55:50;58.83;;;20.60;;
69260;SDS011;56378;52.404;20.816;2023-02-11T09:58:23;59.95;;;21.15;;
69260;SDS011;56378;52.404;20.816;2023-02-11T10:01:08;56.67;;;22.05;;
69260;SDS011;56378;52.404;20.816;2023-02-11T10:06:30;62.67;;;23.15;;
69260;SDS011;56378;52.404;20.816;2023-02-11T10:15:31;63.20;;;24.05;;
69260;SDS011;56378;52.404;20.816;2023-02-11T10:23:49;64.78;;;22.17;;
69260;SDS011;56378;52.404;20.816;2023-02-11T10:26:19;69.00;;;23.75;;
69260;SDS011;56378;52.404;20.816;2023-02-11T10:28:45;71.40;;;25.67;;
69260;SDS011;56378;52.404;20.816;2023-02-11T10:31:14;72.35;;;24.05;;
69260;SDS011;56378;52.404;20.816;2023-02-11T10:36:23;76.13;;;24.35;;
69260;SDS011;56378;52.404;20.816;2023-02-11T10:38:55;68.17;;;25.33;;
69260;SDS011;56378;52.404;20.816;2023-02-11T10:41:27;69.97;;;25.10;;
69260;SDS011;56378;52.404;20.816;2023-02-11T10:43:58;70.47;;;24.63;;
69260;SDS011;56378;52.404;20.816;2023-02-11T10:46:28;72.07;;;26.42;;
69260;SDS011;56378;52.404;20.816;2023-02-11T10:48:56;69.13;;;24.35;;
69260;SDS011;56378;52.404;20.816;2023-02-11T10:51:22;68.17;;;23.87;;
69260;SDS011;56378;52.404;20.816;2023-02-11T10:56:28;69.78;;;23.98;;
69260;SDS011;56378;52.404;20.816;2023-02-11T10:59:00;70.07;;;24.52;;
69260;SDS011;56378;52.404;20.816;2023-02-11T11:01:37;77.50;;;26.17;;
69260;SDS011;56378;52.404;20.816;2023-02-11T11:04:47;73.03;;;24.73;;
69260;SDS011;56378;52.404;20.816;2023-02-11T11:07:14;71.72;;;24.77;;
69260;SDS011;56378;52.404;20.816;2023-02-11T11:09:55;68.90;;;24.30;;
69260;SDS011;56378;52.404;20.816;2023-02-11T11:17:40;77.72;;;25.25;;
69260;SDS011;56378;52.404;20.816;2023-02-11T11:20:13;66.75;;;23.63;;
69260;SDS011;56378;52.404;20.816;2023-02-11T11:23:10;70.60;;;24.70;;
69260;SDS011;56378;52.404;20.816;2023-02-11T11:25:57;64.47;;;24.42;;
69260;SDS011;56378;52.404;20.816;2023-02-11T11:29:01;70.70;;;23.55;;
69260;SDS011;56378;52.404;20.816;2023-02-11T11:31:28;69.25;;;24.73;;
69260;SDS011;56378;52.404;20.816;2023-02-11T11:33:54;71.82;;;25.50;;
69260;SDS011;56378;52.404;20.816;2023-02-11T11:36:29;70.32;;;24.00;;
69260;SDS011;56378;52.404;20.816;2023-02-11T11:39:09;74.70;;;25.15;;
69260;SDS011;56378;52.404;20.816;2023-02-11T11:41:51;70.93;;;23.88;;
69260;SDS011;56378;52.404;20.816;2023-02-11T11:44:39;63.85;;;21.02;;
69260;SDS011;56378;52.404;20.816;2023-02-11T11:49:41;71.68;;;24.15;;
69260;SDS011;56378;52.404;20.816;2023-02-11T11:55:19;80.40;;;27.50;;
69260;SDS011;56378;52.404;20.816;2023-02-11T11:58:09;85.50;;;28.70;;
69260;SDS011;56378;52.404;20.816;2023-02-11T12:06:38;78.88;;;27.58;;
69260;SDS011;56378;52.404;20.816;2023-02-11T12:09:24;71.78;;;24.50;;
69260;SDS011;56378;52.404;20.816;2023-02-11T12:12:13;77.15;;;26.55;;
69260;SDS011;56378;52.404;20.816;2023-02-11T12:20:26;69.75;;;25.00;;
69260;SDS011;56378;52.404;20.816;2023-02-11T12:28:30;68.68;;;25.95;;
69260;SDS011;56378;52.404;20.816;2023-02-11T12:31:14;67.32;;;23.48;;
69260;SDS011;56378;52.404;20.816;2023-02-11T12:47:16;69.38;;;24.35;;
69260;SDS011;56378;52.404;20.816;2023-02-11T12:50:16;66.45;;;24.63;;
69260;SDS011;56378;52.404;20.816;2023-02-11T12:55:28;66.97;;;23.87;;
69260;SDS011;56378;52.404;20.816;2023-02-11T12:58:01;66.68;;;23.30;;
69260;SDS011;56378;52.404;20.816;2023-02-11T13:00:50;70.15;;;24.30;;
69260;SDS011;56378;52.404;20.816;2023-02-11T13:06:00;63.35;;;24.10;;
69260;SDS011;56378;52.404;20.816;2023-02-11T13:08:32;64.20;;;23.60;;
69260;SDS011;56378;52.404;20.816;2023-02-11T13:11:01;66.65;;;24.35;;
69260;SDS011;56378;52.404;20.816;2023-02-11T13:13:34;65.63;;;23.45;;
69260;SDS011;56378;52.404;20.816;2023-02-11T13:16:06;66.03;;;25.27;;
69260;SDS011;56378;52.404;20.816;2023-02-11T13:23:40;63.03;;;23.58;;
69260;SDS011;56378;52.404;20.816;2023-02-11T13:26:32;67.10;;;24.75;;
69260;SDS011;56378;52.404;20.816;2023-02-11T13:31:54;61.45;;;24.02;;
69260;SDS011;56378;52.404;20.816;2023-02-11T13:37:11;74.30;;;27.55;;
69260;SDS011;56378;52.404;20.816;2023-02-11T13:40:00;66.22;;;25.35;;
69260;SDS011;56378;52.404;20.816;2023-02-11T13:42:46;70.72;;;24.95;;
69260;SDS011;56378;52.404;20.816;2023-02-11T13:47:58;70.07;;;25.48;;
69260;SDS011;56378;52.404;20.816;2023-02-11T13:50:31;71.93;;;25.50;;
69260;SDS011;56378;52.404;20.816;2023-02-11T13:53:04;68.72;;;23.25;;
69260;SDS011;56378;52.404;20.816;2023-02-11T13:55:32;68.63;;;26.33;;
69260;SDS011;56378;52.404;20.816;2023-02-11T14:14:20;63.95;;;23.48;;
69260;SDS011;56378;52.404;20.816;2023-02-11T14:19:40;65.05;;;23.70;;
69260;SDS011;56378;52.404;20.816;2023-02-11T14:42:56;59.45;;;22.83;;
69260;SDS011;56378;52.404;20.816;2023-02-11T14:45:35;56.42;;;22.13;;
69260;SDS011;56378;52.404;20.816;2023-02-11T14:48:02;63.45;;;23.50;;
69260;SDS011;56378;52.404;20.816;2023-02-11T14:50:51;53.53;;;20.80;;
69260;SDS011;56378;52.404;20.816;2023-02-11T14:53:22;57.60;;;21.08;;
69260;SDS011;56378;52.404;20.816;2023-02-11T14:55:50;57.17;;;21.45;;
69260;SDS011;56378;52.404;20.816;2023-02-11T14:58:25;52.47;;;21.23;;
69260;SDS011;56378;52.404;20.816;2023-02-11T15:03:26;58.10;;;20.35;;
69260;SDS011;56378;52.404;20.816;2023-02-11T15:05:58;57.83;;;22.45;;
69260;SDS011;56378;52.404;20.816;2023-02-11T15:08:50;56.35;;;20.80;;
69260;SDS011;56378;52.404;20.816;2023-02-11T15:11:28;51.40;;;19.00;;
69260;SDS011;56378;52.404;20.816;2023-02-11T15:13:58;54.28;;;20.52;;
69260;SDS011;56378;52.404;20.816;2023-02-11T15:16:32;53.13;;;21.27;;
69260;SDS011;56378;52.404;20.816;2023-02-11T15:19:03;52.00;;;21.10;;
69260;SDS011;56378;52.404;20.816;2023-02-11T15:21:31;54.75;;;21.42;;
69260;SDS011;56378;52.404;20.816;2023-02-11T15:24:19;60.50;;;23.02;;
69260;SDS011;56378;52.404;20.816;2023-02-11T15:27:12;51.10;;;20.02;;
69260;SDS011;56378;52.404;20.816;2023-02-11T15:29:44;52.50;;;20.42;;
69260;SDS011;56378;52.404;20.816;2023-02-11T15:32:17;50.97;;;20.10;;
69260;SDS011;56378;52.404;20.816;2023-02-11T15:34:48;45.65;;;19.23;;
69260;SDS011;56378;52.404;20.816;2023-02-11T15:37:19;50.13;;;20.45;;
69260;SDS011;56378;52.404;20.816;2023-02-11T15:39:50;49.10;;;19.80;;
69260;SDS011;56378;52.404;20.816;2023-02-11T15:42:21;45.80;;;19.42;;
69260;SDS011;56378;52.404;20.816;2023-02-11T15:44:47;53.47;;;19.42;;
69260;SDS011;56378;52.404;20.816;2023-02-11T15:47:20;48.90;;;19.95;;
69260;SDS011;56378;52.404;20.816;2023-02-11T15:49:53;50.15;;;19.15;;
69260;SDS011;56378;52.404;20.816;2023-02-11T15:52:23;48.42;;;18.98;;
69260;SDS011;56378;52.404;20.816;2023-02-11T15:54:50;46.60;;;18.70;;
69260;SDS011;56378;52.404;20.816;2023-02-11T15:57:17;47.22;;;19.30;;
69260;SDS011;56378;52.404;20.816;2023-02-11T15:59:46;46.97;;;18.48;;
69260;SDS011;56378;52.404;20.816;2023-02-11T16:04:50;48.97;;;19.77;;
69260;SDS011;56378;52.404;20.816;2023-02-11T16:10:25;40.42;;;17.42;;
69260;SDS011;56378;52.404;20.816;2023-02-11T16:18:12;47.30;;;19.23;;
69260;SDS011;56378;52.404;20.816;2023-02-11T16:20:59;48.35;;;20.83;;
69260;SDS011;56378;52.404;20.816;2023-02-11T16:23:31;47.25;;;19.85;;
69260;SDS011;56378;52.404;20.816;2023-02-11T16:28:33;46.27;;;20.23;;
69260;SDS011;56378;52.404;20.816;2023-02-11T16:31:00;65.63;;;29.60;;
69260;SDS011;56378;52.404;20.816;2023-02-11T16:33:28;49.90;;;25.33;;
69260;SDS011;56378;52.404;20.816;2023-02-11T16:35:53;48.33;;;22.58;;
69260;SDS011;56378;52.404;20.816;2023-02-11T16:38:20;53.20;;;23.45;;
69260;SDS011;56378;52.404;20.816;2023-02-11T16:40:45;47.47;;;21.38;;
69260;SDS011;56378;52.404;20.816;2023-02-11T16:43:14;47.65;;;21.65;;
69260;SDS011;56378;52.404;20.816;2023-02-11T16:45:42;48.30;;;23.40;;
69260;SDS011;56378;52.404;20.816;2023-02-11T16:48:08;60.33;;;29.17;;
69260;SDS011;56378;52.404;20.816;2023-02-11T16:50:42;48.58;;;21.42;;
69260;SDS011;56378;52.404;20.816;2023-02-11T16:53:11;49.33;;;21.63;;
69260;SDS011;56378;52.404;20.816;2023-02-11T16:55:39;52.17;;;23.48;;
69260;SDS011;56378;52.404;20.816;2023-02-11T16:58:05;57.47;;;27.80;;
69260;SDS011;56378;52.404;20.816;2023-02-11T17:00:31;52.72;;;25.15;;
69260;SDS011;56378;52.404;20.816;2023-02-11T17:02:57;56.57;;;28.67;;
69260;SDS011;56378;52.404;20.816;2023-02-11T17:05:23;54.38;;;26.02;;
69260;SDS011;56378;52.404;20.816;2023-02-11T17:07:50;50.05;;;23.80;;
69260;SDS011;56378;52.404;20.816;2023-02-11T17:10:21;52.20;;;24.05;;
69260;SDS011;56378;52.404;20.816;2023-02-11T17:12:47;50.17;;;22.90;;
69260;SDS011;56378;52.404;20.816;2023-02-11T17:15:14;64.63;;;33.53;;
69260;SDS011;56378;52.404;20.816;2023-02-11T17:17:39;48.38;;;26.17;;
69260;SDS011;56378;52.404;20.816;2023-02-11T17:20:05;42.57;;;20.53;;
69260;SDS011;56378;52.404;20.816;2023-02-11T17:22:32;46.88;;;22.00;;